Time;durP1;ratioP1;P1;durP2;ratioP2;P2;SDS_P1;SDS_P2;PMS_P1;PMS_P2;Temp;Humidity;BMP_temperature;BMP_pressure;BME280_temperature;BME280_humidity;BME280_pressure;Samples;Min_cycle;Max_cycle;Signal;HPM_P1;HPM_P2
2022/02/03 00:04:32;;;;;;;6.13;4.53;;;;;;;5.62;100.00;97374.03;4995998;28;20048;-61
2022/02/03 00:07:03;;;;;;;6.45;4.50;;;;;;;5.64;100.00;97365.56;5001180;28;20054;-60
2022/02/03 00:27:57;;;;;;;5.60;4.38;;;;;;;5.66;100.00;97355.19;5012488;28;20051;-60
2022/02/03 00:31:34;;;;;;;6.53;3.95;;;;;;;5.64;100.00;97358.22;5002537;28;20388;-62
2022/02/03 00:33:46;;;;;;;5.70;4.65;;;;;;;5.66;100.00;97355.19;4977166;28;20192;-63
2022/02/03 00:36:23;;;;;;;6.07;4.38;;;;;;;5.64;100.00;97371.81;4999037;28;20041;-63
2022/02/03 00:50:04;;;;;;;7.07;4.93;;;;;;;5.72;100.00;97349.25;5000698;28;20125;-62
2022/02/03 00:52:35;;;;;;;6.55;4.38;;;;;;;5.71;100.00;97344.94;4998214;28;20128;-62
2022/02/03 00:55:00;;;;;;;7.75;4.30;;;;;;;5.74;100.00;97351.66;4999521;28;20125;-62
2022/02/03 00:57:38;;;;;;;7.97;4.68;;;;;;;5.71;100.00;97350.38;4991360;28;20382;-62
2022/02/03 01:00:08;;;;;;;7.60;4.82;;;;;;;5.69;100.00;97354.53;4998073;28;20045;-62
2022/02/03 01:02:36;;;;;;;;;;;;;;;5.64;100.00;97352.78;4981786;28;20132;-62
2022/02/03 01:05:03;;;;;;;5.88;4.38;;;;;;;5.65;100.00;97348.94;5000198;28;19913;-62
2022/02/03 01:07:34;;;;;;;7.03;5.32;;;;;;;5.65;100.00;97354.38;5000942;28;20069;-63
2022/02/03 01:10:09;;;;;;;7.50;6.05;;;;;;;5.62;100.00;97352.31;5001306;28;20430;-62
2022/02/03 01:15:36;;;;;;;7.32;5.22;;;;;;;5.68;100.00;97356.44;4995859;28;20042;-62
2022/02/03 01:21:01;;;;;;;7.15;5.35;;;;;;;5.68;100.00;97363.81;4997604;28;20657;-61
2022/02/03 01:45:08;;;;;;;10.38;5.45;;;;;;;6.11;100.00;97338.56;5001732;28;20137;-63
2022/02/03 01:52:42;;;;;;;12.85;5.70;;;;;;;6.18;100.00;97352.50;5012219;28;20049;-63
2022/02/03 01:55:27;;;;;;;10.30;4.85;;;;;;;6.15;100.00;97347.69;5008407;28;20514;-61
2022/02/03 01:58:02;;;;;;;5.28;3.70;;;;;;;6.19;100.00;97345.91;5001991;28;20119;-62
2022/02/03 02:00:37;;;;;;;6.78;4.32;;;;;;;6.12;100.00;97348.31;4998719;28;20046;-62
2022/02/03 02:03:12;;;;;;;18.35;6.38;;;;;;;6.16;100.00;97343.84;4996370;28;20061;-62
2022/02/03 02:05:56;;;;;;;9.95;4.88;;;;;;;6.11;100.00;97333.94;5001251;28;20124;-61
2022/02/03 02:08:27;;;;;;;4.45;3.55;;;;;;;6.11;100.00;97333.13;4993570;28;20465;-62
2022/02/03 02:11:28;;;;;;;5.90;4.00;;;;;;;6.09;100.00;97336.19;5000214;28;20048;-62
2022/02/03 02:39:08;;;;;;;10.27;6.60;;;;;;;5.94;100.00;97317.59;5008743;28;20050;-62
2022/02/03 02:44:48;;;;;;;24.67;7.03;;;;;;;5.85;100.00;97333.09;4994929;28;20129;-62
2022/02/03 02:47:46;;;;;;;16.80;9.20;;;;;;;5.89;100.00;97328.66;4997278;28;20410;-62
2022/02/03 02:50:19;;;;;;;13.73;5.93;;;;;;;5.85;100.00;97335.81;4996944;28;20038;-62
2022/02/03 02:53:23;;;;;;;14.00;6.22;;;;;;;5.76;100.00;97335.81;5013881;28;20045;-63
2022/02/03 03:01:50;;;;;;;8.60;5.45;;;;;;;5.58;100.00;97321.44;5002028;28;20046;-62
2022/02/03 03:34:35;;;;;;;17.85;8.10;;;;;;;5.51;100.00;97302.06;4996764;28;20069;-63
2022/02/03 03:36:59;;;;;;;13.43;7.35;;;;;;;5.53;100.00;97300.66;5002522;28;20067;-63
2022/02/03 03:39:33;;;;;;;11.60;7.53;;;;;;;5.43;100.00;97303.69;4993565;28;20034;-60
2022/02/03 03:42:02;;;;;;;12.60;6.85;;;;;;;5.48;100.00;97302.75;5000686;28;20124;-62
2022/02/03 03:44:30;;;;;;;20.77;8.18;;;;;;;5.49;100.00;97307.03;4990891;28;20050;-61
2022/02/03 03:47:02;;;;;;;13.45;7.40;;;;;;;5.41;100.00;97308.63;4988691;28;20455;-63
2022/02/03 03:49:47;;;;;;;14.20;7.70;;;;;;;5.42;100.00;97307.53;4997399;28;20042;-61
2022/02/03 03:52:24;;;;;;;15.77;7.18;;;;;;;5.51;100.00;97297.47;4992840;28;20473;-62
2022/02/03 03:55:18;;;;;;;17.50;7.28;;;;;;;5.59;100.00;97284.19;4995295;28;20492;-62
2022/02/03 04:32:41;;;;;;;10.88;6.57;;;;;;;5.35;100.00;97269.16;4993221;28;20046;-62
2022/02/03 05:22:09;;;;;;;13.30;8.73;;;;;;;4.58;100.00;97236.09;4994220;28;20046;-62
2022/02/03 05:46:04;;;;;;;26.15;14.23;;;;;;;4.92;100.00;97224.53;4997083;28;20045;-61
2022/02/03 05:49:00;;;;;;;20.63;13.07;;;;;;;4.81;100.00;97208.84;5001493;28;20073;-64
2022/02/03 06:05:13;;;;;;;17.13;11.00;;;;;;;5.19;100.00;97186.56;4995593;28;20042;-62
2022/02/03 06:23:49;;;;;;;28.23;14.45;;;;;;;4.25;100.00;97170.56;5001603;28;20149;-62
2022/02/03 06:29:01;;;;;;;25.33;13.18;;;;;;;4.40;100.00;97172.88;4995543;28;20487;-62
2022/02/03 06:31:27;;;;;;;24.55;12.52;;;;;;;4.29;100.00;97166.13;4997473;28;20091;-62
2022/02/03 06:33:53;;;;;;;22.48;12.55;;;;;;;4.15;100.00;97152.69;5002374;28;20109;-59
2022/02/03 06:36:19;;;;;;;24.13;13.98;;;;;;;4.18;100.00;97143.94;4998086;28;20513;-65
2022/02/03 06:38:45;;;;;;;21.95;13.18;;;;;;;4.30;100.00;97154.94;5011813;28;20119;-61
2022/02/03 06:41:10;;;;;;;25.10;13.55;;;;;;;4.29;100.00;97156.09;5007108;28;20066;-62
2022/02/03 06:43:36;;;;;;;25.65;13.70;;;;;;;4.24;100.00;97150.00;5001220;28;20042;-60
2022/02/03 06:46:07;;;;;;;24.23;13.48;;;;;;;4.19;100.00;97151.72;5001223;28;20058;-61
2022/02/03 06:48:33;;;;;;;30.98;14.75;;;;;;;4.16;100.00;97138.81;5001771;28;20506;-62
2022/02/03 06:51:08;;;;;;;22.38;12.88;;;;;;;4.26;100.00;97132.31;5002851;28;20044;-62
2022/02/03 06:53:38;;;;;;;24.70;14.02;;;;;;;4.20;100.00;97137.06;4997403;28;20042;-63
2022/02/03 06:56:12;;;;;;;27.67;15.85;;;;;;;4.09;100.00;97133.06;4997487;28;20058;-62
2022/02/03 06:58:44;;;;;;;27.95;16.02;;;;;;;4.00;100.00;97124.09;4997933;28;20425;-63
2022/02/03 07:01:20;;;;;;;24.85;14.10;;;;;;;4.13;100.00;97139.44;4994075;28;20491;-62
2022/02/03 07:03:55;;;;;;;27.83;15.27;;;;;;;4.30;100.00;97129.75;4997294;28;20513;-63
2022/02/03 07:06:20;;;;;;;27.27;15.80;;;;;;;4.21;100.00;97140.56;4992911;28;20038;-62
2022/02/03 07:08:47;;;;;;;26.15;14.38;;;;;;;4.25;100.00;97138.03;5001073;28;20107;-63
2022/02/03 07:11:17;;;;;;;24.20;14.45;;;;;;;4.09;100.00;97132.22;4997768;28;20066;-63
2022/02/03 07:13:43;;;;;;;24.30;14.02;;;;;;;4.16;100.00;97140.72;4999837;28;20913;-63
2022/02/03 07:16:08;;;;;;;23.98;13.35;;;;;;;4.28;100.00;97138.19;4989764;28;20054;-63
2022/02/03 07:18:34;;;;;;;27.02;15.93;;;;;;;4.40;100.00;97141.13;4994876;28;20064;-63
2022/02/03 07:20:59;;;;;;;40.30;24.15;;;;;;;4.19;100.00;97127.31;5000301;28;20117;-63
2022/02/03 07:23:25;;;;;;;60.60;31.90;;;;;;;4.10;100.00;97133.84;4998989;28;20050;-67
2022/02/03 07:25:50;;;;;;;45.10;24.58;;;;;;;4.44;100.00;97137.78;4993608;28;20093;-63
2022/02/03 07:28:15;;;;;;;24.08;14.00;;;;;;;4.83;100.00;97125.22;4990773;28;20049;-63
2022/02/03 07:30:41;;;;;;;37.17;20.65;;;;;;;4.72;100.00;97122.03;5003251;28;20475;-62
2022/02/03 07:33:07;;;;;;;26.05;14.23;;;;;;;5.22;100.00;97118.03;4993498;28;20081;-63
2022/02/03 07:35:34;;;;;;;21.52;12.63;;;;;;;6.03;100.00;97116.41;4999372;28;20045;-64
2022/02/03 07:38:03;;;;;;;16.20;10.98;;;;;;;6.55;100.00;97112.59;4999483;28;20046;-65
2022/02/03 07:40:29;;;;;;;28.67;16.00;;;;;;;6.29;100.00;97113.56;4998465;28;20124;-63
2022/02/03 07:42:55;;;;;;;20.23;10.65;;;;;;;5.69;100.00;97108.03;4998364;28;20577;-63
2022/02/03 07:45:21;;;;;;;19.95;11.18;;;;;;;5.41;100.00;97101.38;4996684;28;20069;-63
2022/02/03 07:47:51;;;;;;;15.63;9.73;;;;;;;5.15;100.00;97105.75;5000363;28;20046;-62
2022/02/03 07:50:17;;;;;;;17.15;10.65;;;;;;;5.30;100.00;97098.22;4993468;28;20140;-63
2022/02/03 07:52:43;;;;;;;17.30;10.73;;;;;;;5.27;100.00;97109.72;4998690;28;20448;-63
2022/02/03 07:55:09;;;;;;;19.13;11.50;;;;;;;4.94;100.00;97111.00;4993098;28;20046;-62
2022/02/03 07:57:34;;;;;;;22.23;12.50;;;;;;;4.69;100.00;97118.03;5001417;28;20521;-64
2022/02/03 08:00:00;;;;;;;18.60;10.73;;;;;;;4.52;100.00;97112.56;5012401;28;20753;-61
2022/02/03 08:02:26;;;;;;;21.15;12.68;;;;;;;4.48;100.00;97106.97;5003384;28;20050;-63
2022/02/03 08:04:53;;;;;;;20.38;12.25;;;;;;;4.38;100.00;97116.22;5001571;28;20491;-64
2022/02/03 08:07:21;;;;;;;20.10;12.38;;;;;;;4.38;100.00;97104.59;5001379;28;20172;-63
2022/02/03 08:10:16;;;;;;;19.52;12.02;;;;;;;4.39;100.00;97106.16;5004242;28;20046;-63
2022/02/03 08:12:36;;;;;;;22.23;12.73;;;;;;;4.25;100.00;97103.59;5002235;28;20053;-63
2022/02/03 08:15:03;;;;;;;24.33;17.27;;;;;;;4.28;100.00;97099.44;5002083;28;20077;-62
2022/02/03 08:17:40;;;;;;;26.65;14.57;;;;;;;4.39;100.00;97098.03;4998569;28;20049;-60
2022/02/03 08:20:13;;;;;;;25.30;15.75;;;;;;;4.86;100.00;97086.56;4997539;28;20037;-63
2022/02/03 08:22:50;;;;;;;32.72;19.38;;;;;;;5.41;100.00;97085.88;5001380;28;20046;-63
2022/02/03 08:25:24;;;;;;;16.83;10.27;;;;;;;5.86;100.00;97082.69;4993134;28;20515;-63
2022/02/03 08:30:36;;;;;;;14.45;8.15;;;;;;;5.98;100.00;97073.88;4993310;28;20268;-62
2022/02/03 08:33:03;;;;;;;12.55;8.20;;;;;;;6.53;100.00;97071.31;5000978;28;20523;-62
2022/02/03 08:35:46;;;;;;;10.25;7.78;;;;;;;7.26;100.00;97077.13;4997359;28;20137;-62
2022/02/03 08:40:56;;;;;;;13.15;8.55;;;;;;;7.04;100.00;97061.13;5000013;28;20096;-64
2022/02/03 08:43:24;;;;;;;18.83;14.25;;;;;;;6.95;100.00;97063.94;4982677;28;20547;-62
2022/02/03 08:45:50;;;;;;;12.10;8.07;;;;;;;7.22;100.00;97054.41;5000003;28;20475;-64
2022/02/03 08:48:16;;;;;;;12.00;7.32;;;;;;;6.65;100.00;97039.53;4994990;28;20103;-62
2022/02/03 08:50:42;;;;;;;17.70;12.82;;;;;;;7.12;100.00;97045.84;4999908;28;20072;-62
2022/02/03 08:55:51;;;;;;;6.70;4.95;;;;;;;7.25;100.00;97045.53;5001498;28;20177;-61
2022/02/03 08:58:37;;;;;;;7.47;4.88;;;;;;;7.26;100.00;97038.19;5011110;28;20340;-62
2022/02/03 09:59:20;;;;;;;6.65;4.10;;;;;;;9.73;87.40;96959.16;4999973;28;20469;-61
2022/02/03 10:01:53;;;;;;;7.20;4.35;;;;;;;10.32;81.19;96958.19;5004788;28;20121;-61
2022/02/03 10:04:44;;;;;;;5.88;3.88;;;;;;;10.41;82.27;96951.72;4999147;28;20048;-62
2022/02/03 10:07:19;;;;;;;13.18;4.20;;;;;;;11.46;77.38;96958.78;4996342;28;20578;-64
2022/02/03 10:09:45;;;;;;;10.57;4.80;;;;;;;12.32;73.31;96958.56;5002931;28;20637;-62
2022/02/03 10:12:13;;;;;;;5.28;3.17;;;;;;;12.48;69.88;96959.16;4998217;28;20081;-62
2022/02/03 10:14:45;;;;;;;4.95;3.38;;;;;;;11.95;73.00;96956.44;5004335;28;20406;-63
2022/02/03 10:17:11;;;;;;;6.63;3.33;;;;;;;11.75;75.33;96966.69;5008008;28;20101;-62
2022/02/03 10:19:40;;;;;;;4.88;3.38;;;;;;;11.64;73.89;96970.06;5017869;28;20038;-63
2022/02/03 10:22:18;;;;;;;5.03;3.20;;;;;;;11.26;77.48;96962.75;5015479;28;20554;-61
2022/02/03 10:24:48;;;;;;;5.63;3.35;;;;;;;11.73;76.30;96955.31;5001989;28;20061;-62
2022/02/03 10:27:22;;;;;;;4.13;3.17;;;;;;;12.19;73.58;96950.53;4997641;28;20148;-62
2022/02/03 10:29:48;;;;;;;5.18;3.65;;;;;;;12.52;72.91;96945.47;5003989;28;20133;-62
2022/02/03 10:32:15;;;;;;;9.77;3.90;;;;;;;12.62;69.91;96939.28;4998101;28;20707;-62
2022/02/03 10:34:43;;;;;;;5.72;2.92;;;;;;;12.66;70.93;96939.34;5003447;28;20046;-61
2022/02/03 10:37:21;;;;;;;5.10;3.55;;;;;;;11.33;75.26;96949.16;4997907;28;20073;-62
2022/02/03 10:40:25;;;;;;;13.00;3.40;;;;;;;11.82;74.40;96940.16;5001331;28;20497;-62
2022/02/03 11:09:17;;;;;;;10.45;4.72;;;;;;;11.57;77.29;96884.09;5002840;28;20399;-63
2022/02/03 11:11:38;;;;;;;8.32;3.33;;;;;;;12.21;75.82;96878.78;5001315;28;20049;-65
2022/02/03 11:14:04;;;;;;;5.93;3.77;;;;;;;12.72;72.79;96880.16;4999637;28;20123;-67
2022/02/03 11:16:32;;;;;;;7.80;3.97;;;;;;;12.88;71.22;96868.94;5002105;28;20148;-65
2022/02/03 11:19:03;;;;;;;4.47;2.97;;;;;;;11.64;72.44;96852.06;4995971;28;20462;-65
2022/02/03 11:21:28;;;;;;;9.10;3.50;;;;;;;9.45;85.15;96853.41;4997240;28;20046;-63
2022/02/03 11:24:02;;;;;;;4.65;3.35;;;;;;;10.25;85.29;96864.16;5002281;28;20472;-65
2022/02/03 11:53:28;;;;;;;21.05;6.63;;;;;;;10.06;84.93;96808.22;4995826;28;20046;-64
2022/02/03 11:59:07;;;;;;;13.18;5.28;;;;;;;9.81;85.31;96790.53;4999871;28;20177;-64
2022/02/03 12:04:54;;;;;;;18.77;7.03;;;;;;;9.74;85.87;96781.03;4994884;28;20521;-64
2022/02/03 12:07:47;;;;;;;7.70;4.03;;;;;;;9.61;85.13;96795.19;4994401;28;20072;-64
2022/02/03 12:19:08;;;;;;;6.30;4.75;;;;;;;9.70;86.14;96736.38;5030686;28;20045;-66
2022/02/03 12:21:46;;;;;;;13.35;4.90;;;;;;;9.98;85.24;96718.19;5020367;28;20098;-64
2022/02/03 12:27:23;;;;;;;10.60;4.47;;;;;;;10.24;83.05;96717.47;5020908;28;20069;-66
2022/02/03 12:29:58;;;;;;;8.50;4.85;;;;;;;10.23;81.19;96715.91;5029205;28;20497;-67
2022/02/03 12:32:40;;;;;;;7.32;4.25;;;;;;;10.26;80.91;96701.47;5025340;28;20411;-64
2022/02/03 12:40:44;;;;;;;11.23;4.68;;;;;;;10.21;82.18;96735.44;5014999;28;20585;-64
2022/02/03 12:45:46;;;;;;;16.80;5.60;;;;;;;10.43;81.02;96714.72;5020264;28;20045;-66
2022/02/03 12:48:12;;;;;;;12.27;5.10;;;;;;;10.24;82.56;96712.00;5009119;28;20560;-65
2022/02/03 12:50:40;;;;;;;7.45;4.15;;;;;;;10.06;83.09;96687.03;4988097;28;20038;-66
2022/02/03 12:53:06;;;;;;;6.20;4.00;;;;;;;10.20;82.18;96683.78;4989986;28;20046;-65
2022/02/03 12:55:38;;;;;;;7.88;4.30;;;;;;;10.17;82.61;96679.03;4998684;28;20053;-65
2022/02/03 12:58:14;;;;;;;8.40;3.60;;;;;;;10.20;81.70;96676.34;4996758;28;20433;-68
2022/02/03 13:00:56;;;;;;;9.00;3.97;;;;;;;10.31;82.49;96665.63;4998872;28;20507;-65
2022/02/03 13:03:38;;;;;;;11.55;4.10;;;;;;;10.22;82.47;96634.94;4992129;28;20043;-65
2022/02/03 13:06:08;;;;;;;12.48;5.18;;;;;;;10.13;83.75;96648.84;4996899;28;20057;-64
2022/02/03 13:08:44;;;;;;;6.88;3.75;;;;;;;9.98;83.96;96679.88;4997241;28;20050;-64
2022/02/03 13:11:25;;;;;;;5.63;3.55;;;;;;;10.17;82.45;96676.28;4997126;28;20060;-64
2022/02/03 13:19:36;;;;;;;8.85;3.83;;;;;;;9.96;84.08;96647.41;4997808;28;20041;-66
2022/02/03 13:22:19;;;;;;;6.50;3.63;;;;;;;9.94;84.81;96650.50;5000746;28;20435;-65
2022/02/03 13:25:08;;;;;;;11.07;3.83;;;;;;;10.01;85.71;96651.75;4999935;28;20052;-64
2022/02/03 13:30:16;;;;;;;;;;;;;;;10.02;84.93;96635.00;5000435;28;20050;-66
2022/02/03 13:32:51;;;;;;;13.32;4.53;;;;;;;9.87;83.54;96630.44;5005597;28;20688;-66
2022/02/03 13:35:31;;;;;;;17.13;6.10;;;;;;;10.12;83.56;96636.34;5000478;28;20391;-65
2022/02/03 13:38:03;;;;;;;7.07;3.95;;;;;;;10.21;84.01;96628.69;5000548;28;20125;-66
2022/02/03 13:40:29;;;;;;;4.97;3.47;;;;;;;10.28;83.75;96631.53;5008607;28;20072;-65
2022/02/03 13:43:12;;;;;;;5.78;3.85;;;;;;;10.03;84.74;96633.84;4999716;28;20096;-67
2022/02/03 13:45:42;;;;;;;6.50;3.80;;;;;;;10.01;85.65;96616.19;5002883;28;20053;-66
2022/02/03 13:48:18;;;;;;;9.73;4.88;;;;;;;9.87;86.63;96614.81;4996385;28;20046;-66
2022/02/03 13:50:55;;;;;;;8.48;4.32;;;;;;;9.70;87.58;96629.72;5000694;28;20100;-66
2022/02/03 13:53:31;;;;;;;7.78;3.70;;;;;;;9.55;88.37;96619.69;4993112;28;20133;-66
2022/02/03 14:21:21;;;;;;;14.00;3.88;;;;;;;9.72;86.45;96588.34;4986988;28;20041;-67
2022/02/03 14:29:27;;;;;;;9.48;4.35;;;;;;;9.38;89.02;96616.25;4995862;28;20041;-66
2022/02/03 14:32:04;;;;;;;12.07;5.20;;;;;;;9.16;89.74;96606.03;5003479;28;20510;-66
2022/02/03 14:34:32;;;;;;;16.02;6.85;;;;;;;8.92;91.03;96598.91;5002247;28;20057;-66
2022/02/03 14:37:04;;;;;;;12.68;5.45;;;;;;;8.66;91.89;96574.94;4996632;28;20122;-66
2022/02/03 14:42:14;;;;;;;7.93;4.90;;;;;;;8.32;94.00;96567.16;4993178;28;20049;-65
2022/02/03 14:44:40;;;;;;;11.38;5.78;;;;;;;8.25;94.70;96577.91;5005618;28;20045;-66
2022/02/03 14:47:07;;;;;;;10.48;5.25;;;;;;;8.26;94.96;96593.13;5006589;28;20045;-66
2022/02/03 14:49:33;;;;;;;8.40;4.78;;;;;;;8.09;94.07;96598.97;5005038;28;20518;-66
2022/02/03 14:52:26;;;;;;;10.80;5.22;;;;;;;7.95;95.22;96591.22;5005130;28;20062;-66
2022/02/03 15:00:22;;;;;;;13.60;6.75;;;;;;;7.55;97.51;96609.28;4994503;28;20038;-65
2022/02/03 15:02:49;;;;;;;14.52;7.82;;;;;;;7.46;98.81;96600.50;5002410;28;20045;-65
2022/02/03 15:05:22;;;;;;;7.53;4.70;;;;;;;7.45;99.07;96596.16;5007340;28;20042;-65
2022/02/03 15:07:55;;;;;;;10.77;5.85;;;;;;;7.34;100.00;96597.81;4997406;28;20143;-65
2022/02/03 15:13:12;;;;;;;10.95;5.35;;;;;;;7.21;100.00;96592.41;4991955;28;20057;-64
2022/02/03 15:15:38;;;;;;;11.02;6.22;;;;;;;7.10;100.00;96585.88;5000051;28;20077;-64
2022/02/03 15:18:03;;;;;;;8.90;5.00;;;;;;;7.05;100.00;96589.63;4997661;28;20038;-64
2022/02/03 15:20:30;;;;;;;7.20;5.28;;;;;;;6.97;100.00;96585.16;4999393;28;20056;-65
2022/02/03 15:22:55;;;;;;;9.57;5.68;;;;;;;6.94;100.00;96574.16;5001869;28;20336;-64
2022/02/03 15:25:21;;;;;;;16.48;5.80;;;;;;;6.94;100.00;96569.50;4996271;28;20049;-65
2022/02/03 15:27:47;;;;;;;9.55;4.60;;;;;;;6.94;100.00;96587.78;5001327;28;20046;-65
2022/02/03 15:30:13;;;;;;;7.75;4.93;;;;;;;6.94;100.00;96576.88;4997186;28;20080;-65
2022/02/03 15:32:41;;;;;;;11.90;5.13;;;;;;;6.86;100.00;96564.97;4997979;28;20069;-65
2022/02/03 15:35:12;;;;;;;13.48;5.50;;;;;;;6.88;100.00;96568.16;4997217;28;20415;-66
2022/02/03 15:37:38;;;;;;;7.63;5.00;;;;;;;6.94;100.00;96566.75;4998536;28;20487;-66
2022/02/03 15:40:09;;;;;;;12.23;6.40;;;;;;;6.96;100.00;96569.94;4978976;28;20053;-63
2022/02/03 15:42:40;;;;;;;7.95;4.93;;;;;;;6.91;100.00;96574.84;4988644;28;20048;-64
2022/02/03 15:45:07;;;;;;;8.93;5.20;;;;;;;6.81;100.00;96574.19;5007599;28;20148;-64
2022/02/03 15:47:41;;;;;;;6.53;4.55;;;;;;;6.81;100.00;96574.19;5007015;28;20042;-66
2022/02/03 15:50:38;;;;;;;9.93;5.10;;;;;;;6.79;100.00;96564.75;4997734;28;20056;-63
2022/02/03 16:01:32;;;;;;;8.68;5.10;;;;;;;6.52;100.00;96567.13;4997755;28;20050;-64
2022/02/03 16:17:21;;;;;;;9.07;5.45;;;;;;;6.09;100.00;96607.38;4993309;28;20057;-66
2022/02/03 16:20:13;;;;;;;9.52;5.60;;;;;;;6.06;100.00;96609.97;4999397;28;20439;-66
2022/02/03 16:54:24;;;;;;;16.17;9.68;;;;;;;5.05;100.00;96568.53;5004457;28;20049;-64
2022/02/03 16:56:54;;;;;;;16.00;9.35;;;;;;;4.96;100.00;96571.31;5006828;28;20068;-64
2022/02/03 16:59:20;;;;;;;34.28;11.73;;;;;;;5.12;100.00;96568.78;4989421;28;20514;-64
2022/02/03 17:01:45;;;;;;;31.25;17.80;;;;;;;5.17;100.00;96575.94;5001003;28;20034;-64
2022/02/03 17:04:17;;;;;;;32.10;16.67;;;;;;;5.14;100.00;96590.97;4995714;28;20133;-65
2022/02/03 17:06:46;;;;;;;28.40;12.50;;;;;;;5.07;100.00;96593.41;5001507;28;20099;-64
2022/02/03 17:09:11;;;;;;;23.15;13.07;;;;;;;5.06;100.00;96591.84;4996712;28;20046;-64
2022/02/03 17:11:37;;;;;;;25.00;14.63;;;;;;;5.14;100.00;96579.31;5008114;28;20059;-65
2022/02/03 17:14:02;;;;;;;21.75;12.05;;;;;;;5.17;100.00;96578.66;5016359;28;20048;-65
2022/02/03 17:16:28;;;;;;;35.88;16.33;;;;;;;5.16;100.00;96577.84;5000721;28;20045;-65
2022/02/03 17:18:54;;;;;;;33.00;17.65;;;;;;;5.20;100.00;96588.03;5001524;28;20473;-65
2022/02/03 17:21:22;;;;;;;18.83;10.52;;;;;;;5.11;100.00;96588.13;5007164;28;20092;-65
2022/02/03 17:23:48;;;;;;;19.80;10.75;;;;;;;4.84;100.00;96581.31;5001189;28;20106;-65
2022/02/03 17:26:23;;;;;;;14.45;8.88;;;;;;;4.71;100.00;96573.13;4994031;28;20061;-65
2022/02/03 18:51:26;;;;;;;16.45;8.70;;;;;;;3.91;100.00;96565.84;4979253;28;20049;-65
2022/02/03 18:58:55;;;;;;;37.75;19.35;;;;;;;4.05;100.00;96573.72;5012667;28;20609;-65
2022/02/03 19:01:48;;;;;;;24.98;11.90;;;;;;;4.01;100.00;96573.56;4997963;28;20041;-66
2022/02/03 19:26:02;;;;;;;35.67;21.08;;;;;;;3.87;100.00;96559.47;4997550;28;20080;-66
2022/02/03 20:08:46;;;;;;;24.83;14.02;;;;;;;4.07;100.00;96522.72;5006841;28;20591;-63
2022/02/03 20:11:15;;;;;;;27.40;15.18;;;;;;;3.88;100.00;96561.06;4994968;28;20042;-63
2022/02/03 20:13:40;;;;;;;32.25;15.07;;;;;;;3.71;100.00;96548.41;4999632;28;20038;-67
2022/02/03 20:16:07;;;;;;;27.98;16.65;;;;;;;3.75;100.00;96543.91;4995374;28;20137;-66
2022/02/03 20:18:32;;;;;;;27.42;15.05;;;;;;;3.87;100.00;96531.56;5001541;28;20049;-66
2022/02/03 20:20:57;;;;;;;30.30;16.20;;;;;;;4.07;100.00;96521.91;5000461;28;20046;-65
2022/02/03 20:23:24;;;;;;;43.08;23.75;;;;;;;4.11;100.00;96503.88;4993834;28;20111;-66
2022/02/03 20:25:57;;;;;;;26.48;16.15;;;;;;;4.09;100.00;96517.75;4991832;28;20141;-66
2022/02/03 20:28:24;;;;;;;27.45;16.33;;;;;;;3.88;100.00;96520.41;4987931;28;20841;-67
2022/02/03 20:30:49;;;;;;;29.00;16.83;;;;;;;3.93;100.00;96525.66;5001084;28;20065;-66
2022/02/03 20:33:17;;;;;;;26.35;15.05;;;;;;;3.94;100.00;96553.53;4996488;28;20065;-66
2022/02/03 20:35:43;;;;;;;25.40;14.52;;;;;;;3.85;100.00;96561.69;5006409;28;20054;-66
2022/02/03 20:38:09;;;;;;;25.58;15.60;;;;;;;3.78;100.00;96575.78;5000038;28;20475;-65
2022/02/03 20:40:35;;;;;;;27.20;14.82;;;;;;;3.77;100.00;96557.91;4997837;28;20046;-65
2022/02/03 20:43:01;;;;;;;30.27;17.17;;;;;;;3.75;100.00;96546.63;5001465;28;20372;-67
2022/02/03 20:45:26;;;;;;;25.77;14.35;;;;;;;3.80;100.00;96542.94;4995410;28;20072;-64
2022/02/03 20:47:52;;;;;;;33.42;18.17;;;;;;;3.76;100.00;96528.44;5010987;28;20105;-66
2022/02/03 20:50:20;;;;;;;37.42;18.17;;;;;;;3.89;100.00;96548.28;5008067;28;20046;-65
2022/02/03 20:52:46;;;;;;;26.13;16.67;;;;;;;3.78;100.00;96543.25;4998236;28;20133;-66
2022/02/03 20:55:12;;;;;;;31.90;16.83;;;;;;;3.75;100.00;96530.38;4992809;28;20068;-66
2022/02/03 20:57:38;;;;;;;36.40;17.48;;;;;;;3.76;100.00;96537.38;5000911;28;20049;-66
2022/02/03 21:00:17;;;;;;;29.88;16.13;;;;;;;3.79;100.00;96554.88;4994742;28;20136;-65
2022/02/03 21:05:16;;;;;;;27.90;16.60;;;;;;;3.88;100.00;96560.28;4994995;28;20042;-66
2022/02/03 21:07:47;;;;;;;26.65;16.00;;;;;;;3.98;100.00;96560.69;4993814;28;20049;-65
2022/02/03 21:10:17;;;;;;;29.48;15.88;;;;;;;3.83;100.00;96553.94;4994519;28;20275;-65
2022/02/03 21:12:46;;;;;;;26.65;16.75;;;;;;;3.77;100.00;96538.16;4995178;28;20112;-64
2022/02/03 21:15:13;;;;;;;27.70;16.58;;;;;;;3.75;100.00;96526.88;5007125;28;20045;-65
2022/02/03 21:17:39;;;;;;;28.38;17.02;;;;;;;3.22;100.00;96494.59;5006328;28;20038;-65
2022/02/03 21:20:10;;;;;;;28.10;16.23;;;;;;;2.91;100.00;96483.22;4993948;28;20049;-63
2022/02/03 21:22:37;;;;;;;31.65;18.92;;;;;;;2.92;100.00;96523.47;4999124;28;20046;-67
2022/02/03 21:27:56;;;;;;;33.67;20.05;;;;;;;2.91;100.00;96519.16;5000239;28;20054;-65
2022/02/03 21:30:23;;;;;;;46.30;25.80;;;;;;;2.91;100.00;96535.41;4992809;28;20053;-65
2022/02/03 21:32:50;;;;;;;40.00;21.30;;;;;;;2.84;100.00;96538.59;4999128;28;20042;-66
2022/02/03 21:35:18;;;;;;;37.13;22.20;;;;;;;2.81;100.00;96533.03;4994666;28;20414;-66
2022/02/03 21:37:45;;;;;;;34.10;20.05;;;;;;;2.87;100.00;96529.06;5000456;28;20052;-65
2022/02/03 21:40:11;;;;;;;31.67;19.27;;;;;;;2.91;100.00;96524.56;4988219;28;20129;-64
2022/02/03 21:42:37;;;;;;;36.55;18.67;;;;;;;2.89;100.00;96517.91;5005803;28;20038;-67
2022/02/03 21:45:05;;;;;;;29.08;18.02;;;;;;;2.73;100.00;96504.09;5008935;28;20037;-64
2022/02/03 21:47:31;;;;;;;29.63;16.92;;;;;;;2.54;100.00;96507.94;4998610;28;20042;-68
2022/02/03 21:49:59;;;;;;;29.90;16.45;;;;;;;2.67;100.00;96508.88;4995564;28;20046;-66
2022/02/03 21:52:35;;;;;;;28.60;17.30;;;;;;;2.89;100.00;96504.38;4994703;28;20127;-66
2022/02/03 21:55:01;;;;;;;30.77;17.75;;;;;;;2.80;100.00;96507.88;5000346;28;20045;-66
2022/02/03 21:57:27;;;;;;;34.20;18.95;;;;;;;2.78;100.00;96503.94;4995691;28;20046;-65
2022/02/03 21:59:52;;;;;;;27.88;16.95;;;;;;;2.90;100.00;96500.56;4999105;28;20041;-65
2022/02/03 22:02:21;;;;;;;31.30;17.95;;;;;;;2.90;100.00;96503.25;4987400;28;20041;-66
2022/02/03 22:04:47;;;;;;;30.77;16.98;;;;;;;2.80;100.00;96507.88;4993971;28;20045;-65
2022/02/03 22:07:12;;;;;;;25.20;15.60;;;;;;;2.70;100.00;96508.22;4985387;28;20628;-66
2022/02/03 22:09:39;;;;;;;28.55;15.98;;;;;;;2.56;100.00;96497.59;5000499;28;20039;-67
2022/02/03 22:12:06;;;;;;;24.30;14.38;;;;;;;2.43;100.00;96503.94;4977151;28;20184;-65
2022/02/03 22:14:33;;;;;;;25.15;15.05;;;;;;;2.36;100.00;96504.44;4997115;28;20490;-66
2022/02/03 22:17:00;;;;;;;28.33;15.15;;;;;;;2.23;100.00;96498.06;4994462;28;20135;-65
2022/02/03 22:19:27;;;;;;;34.00;16.30;;;;;;;2.09;100.00;96487.41;5001538;28;20056;-64
2022/02/03 22:23:08;;;;;;;25.48;15.18;;;;;;;1.97;100.00;96489.16;5001313;28;20050;-66
2022/02/03 22:38:34;;;;;;;28.98;16.38;;;;;;;1.79;100.00;96483.72;4999844;28;20160;-65
2022/02/03 22:46:05;;;;;;;25.33;15.38;;;;;;;1.50;100.00;96479.66;4998990;28;20046;-66
2022/02/03 22:48:30;;;;;;;27.38;15.57;;;;;;;1.46;100.00;96478.72;5000318;28;20083;-66
2022/02/03 22:50:58;;;;;;;28.25;15.20;;;;;;;1.45;100.00;96474.41;4983830;28;20080;-65
2022/02/03 22:53:23;;;;;;;32.05;18.10;;;;;;;1.37;100.00;96485.97;4997398;28;20470;-64
2022/02/03 22:55:49;;;;;;;28.70;14.40;;;;;;;1.44;100.00;96490.91;5001419;28;20042;-65
2022/02/03 23:01:01;;;;;;;31.85;15.13;;;;;;;1.48;100.00;96500.78;4997164;28;20053;-66
2022/02/03 23:03:28;;;;;;;33.90;16.83;;;;;;;1.44;100.00;96494.44;4997736;28;20403;-67
2022/02/03 23:05:55;;;;;;;32.47;16.27;;;;;;;1.36;100.00;96497.09;5000843;28;20053;-65
2022/02/03 23:08:28;;;;;;;34.30;16.98;;;;;;;1.26;100.00;96501.66;4994932;28;20073;-65
2022/02/03 23:13:59;;;;;;;33.15;17.88;;;;;;;1.08;100.00;96513.44;4989086;28;20270;-63
2022/02/03 23:16:39;;;;;;;26.77;16.00;;;;;;;1.07;100.00;96512.66;4997133;28;20069;-63